»·PEaware :: N555HP KSAN-KLAS

N555HP :: KSAN-KLAS

FLIGHT INFORMATION

Flight Status: Arrived
Operator: Privately registered:
United States
More flights under this callsign
Pilot: Adam R. (28816)
Aircraft: SOCATA TBM-900
(TBM9)
More flights by this aircraft type
Origin: KSAN San Diego Intl-Lindbergh
United States
Destination: KLAS McCarran Intl
United States
More flights between these airports :: More routes between these airports
Route: +BRDR7 JLI V514 GFS V538 LAS
File this flight plan on PilotEdge
Remarks:
Altitude:
(Current/Filed)
21,000ft
Speed:
(Current/Filed)
225kts
Departed: 06-Jun-20 08:03 PM
Arrived: 06-Jun-20 09:04 PM
Distance/Time
Traveled:
224nm/1:01
Distance/Time
To Go:
Arrived

Flight Plot

Page will automatically refresh every two minutes.

Flight plan parsing failed; only flown route is shown


Map Options




Map Legend


Flown Route
Filed Route
Departure Airport
Arrival Airport
Navaid (VOR, NDB)
Fix

Horizontal Profiles

Position Reports

Time Latitude Longitude Heading Altitude Ground
Speed
06-Jun-20 19:39 32.732418 -117.176873 234 21ft 0kts
06-Jun-20 19:40 32.732418 -117.176873 234 21ft 0kts
06-Jun-20 19:41 32.732418 -117.176873 234 21ft 0kts
06-Jun-20 19:42 32.732418 -117.176873 234 21ft 0kts
06-Jun-20 19:43 32.732418 -117.176873 234 21ft 0kts
06-Jun-20 19:43 32.732418 -117.176873 234 21ft 0kts
06-Jun-20 19:45 32.732418 -117.176873 234 21ft 0kts
06-Jun-20 19:46 32.732418 -117.176873 234 21ft 0kts
06-Jun-20 19:46 32.732418 -117.176873 234 21ft 0kts
06-Jun-20 19:47 32.732418 -117.176873 234 21ft 0kts
06-Jun-20 19:48 32.732418 -117.176873 234 21ft 0kts
06-Jun-20 19:49 32.732418 -117.176873 234 21ft 0kts
06-Jun-20 19:50 32.732418 -117.176873 234 21ft 0kts
06-Jun-20 19:51 32.732418 -117.176873 234 21ft 0kts
06-Jun-20 19:52 32.732418 -117.176873 234 21ft 0kts
06-Jun-20 19:53 32.732418 -117.176873 234 21ft 0kts
06-Jun-20 19:54 32.732418 -117.176873 234 21ft 0kts
06-Jun-20 19:55 32.732418 -117.176873 234 21ft 0kts
06-Jun-20 19:56 32.732418 -117.176873 234 21ft 0kts
06-Jun-20 19:57 32.731528 -117.176775 126 19ft 7kts
06-Jun-20 19:58 32.731062 -117.175488 135 21ft 0kts
06-Jun-20 19:59 32.731062 -117.175488 135 21ft 0kts
06-Jun-20 20:00 32.731062 -117.175488 135 21ft 0kts
06-Jun-20 20:01 32.730968 -117.175416 179 21ft 0kts
06-Jun-20 20:02 32.732021 -117.183286 285 85ft 107kts
06-Jun-20 20:03 32.741344 -117.219073 288 2487ft 119kts
06-Jun-20 20:04 32.753654 -117.261008 288 4799ft 149kts
06-Jun-20 20:05 32.761042 -117.308213 234 6996ft 163kts
06-Jun-20 20:06 32.720806 -117.286643 134 8982ft 196kts
06-Jun-20 20:07 32.682639 -117.239044 137 11474ft 202kts
06-Jun-20 20:08 32.645827 -117.187293 96 13604ft 216kts
06-Jun-20 20:09 32.683601 -117.144942 28 15676ft 204kts
06-Jun-20 20:10 32.726663 -117.097705 36 17614ft 216kts
06-Jun-20 20:11 32.769833 -117.045046 37 19455ft 229kts
06-Jun-20 20:12 32.815316 -116.989130 37 21007ft 256kts
06-Jun-20 20:13 32.870584 -116.920969 39 20991ft 304kts
06-Jun-20 20:14 32.930759 -116.846495 40 20984ft 316kts
06-Jun-20 20:15 32.991953 -116.770649 40 20984ft 318kts
06-Jun-20 20:16 33.053308 -116.694446 40 20983ft 315kts
06-Jun-20 20:17 33.113593 -116.619427 40 20984ft 314kts
06-Jun-20 20:18 33.179615 -116.553399 27 20961ft 307kts
06-Jun-20 20:19 33.250040 -116.495065 27 20881ft 309kts
06-Jun-20 20:20 33.321467 -116.435672 27 20777ft 313kts
06-Jun-20 20:21 33.393020 -116.376047 27 20739ft 312kts
06-Jun-20 20:22 33.464298 -116.316534 28 20731ft 311kts
06-Jun-20 20:23 33.535385 -116.257059 28 20732ft 311kts
06-Jun-20 20:24 33.606321 -116.197603 28 20732ft 310kts
06-Jun-20 20:25 33.677361 -116.137923 28 20733ft 311kts
06-Jun-20 20:26 33.748256 -116.078246 28 20734ft 311kts
06-Jun-20 20:27 33.819088 -116.018498 28 20734ft 311kts
06-Jun-20 20:28 33.890173 -115.958413 28 20735ft 311kts
06-Jun-20 20:29 33.960889 -115.898515 28 20761ft 310kts
06-Jun-20 20:30 34.031585 -115.838509 28 20823ft 310kts
06-Jun-20 20:31 34.102222 -115.778430 28 20874ft 310kts
06-Jun-20 20:32 34.167396 -115.708021 36 20874ft 316kts
06-Jun-20 20:33 34.231975 -115.635384 36 20875ft 316kts
06-Jun-20 20:34 34.296289 -115.562913 36 20875ft 316kts
06-Jun-20 20:35 34.368724 -115.510716 11 20878ft 301kts
06-Jun-20 20:36 34.447848 -115.476508 11 20876ft 301kts
06-Jun-20 20:37 34.526671 -115.442164 11 20876ft 302kts
06-Jun-20 20:38 34.606052 -115.407510 11 20826ft 303kts
06-Jun-20 20:39 34.685511 -115.372739 11 20747ft 303kts
06-Jun-20 20:40 34.765049 -115.337870 12 20703ft 302kts
06-Jun-20 20:41 34.843951 -115.303205 12 20704ft 301kts
06-Jun-20 20:42 34.922241 -115.268706 12 20925ft 292kts
06-Jun-20 20:43 34.999748 -115.234615 12 20132ft 307kts
06-Jun-20 20:44 35.080920 -115.198740 13 18113ft 310kts
06-Jun-20 20:45 35.163286 -115.175498 355 16082ft 301kts
06-Jun-20 20:46 35.246503 -115.173568 357 14070ft 295kts
06-Jun-20 20:47 35.328108 -115.171509 358 12059ft 293kts
06-Jun-20 20:48 35.407375 -115.169444 357 11099ft 269kts
06-Jun-20 20:49 35.480560 -115.167584 357 11120ft 258kts
06-Jun-20 20:50 35.552246 -115.165771 357 11135ft 257kts
06-Jun-20 20:51 35.624102 -115.163944 357 11136ft 257kts
06-Jun-20 20:52 35.697807 -115.157978 1 10210ft 278kts
06-Jun-20 20:53 35.773981 -115.149339 1 8595ft 270kts
06-Jun-20 20:54 35.846005 -115.140539 1 8150ft 247kts
06-Jun-20 20:55 35.914191 -115.131916 1 7894ft 252kts
06-Jun-20 20:56 35.988150 -115.123292 1 6168ft 262kts
06-Jun-20 20:57 36.054658 -115.115220 6 5759ft 220kts
06-Jun-20 20:58 36.103407 -115.088407 25 4475ft 176kts
06-Jun-20 20:59 36.140643 -115.085678 288 3670ft 141kts
06-Jun-20 21:00 36.150560 -115.124283 236 3373ft 98kts
06-Jun-20 21:01 36.127210 -115.140679 209 2829ft 94kts
06-Jun-20 21:02 36.104656 -115.153507 208 2305ft 89kts
06-Jun-20 21:03 36.090775 -115.161560 204 2118ft 22kts
06-Jun-20 21:04 36.089354 -115.163644 255 2128ft 4kts
06-Jun-20 21:05 36.089515 -115.164657 205 2132ft 5kts
06-Jun-20 21:06 36.086379 -115.166444 204 2145ft 16kts
06-Jun-20 21:07 36.082150 -115.168866 205 2162ft 16kts
06-Jun-20 21:08 36.080966 -115.170606 223 2168ft 5kts
06-Jun-20 21:09 36.080666 -115.170954 156 2169ft 0kts
06-Jun-20 21:10 36.080667 -115.170954 156 2169ft 0kts
06-Jun-20 21:11 36.080667 -115.170954 156 2169ft 0kts
06-Jun-20 21:12 36.080667 -115.170954 156 2169ft 0kts

Navigation Log

Ident Type
Flight plan parsing failed, navigation log unavailable